createdAt,value
2023-05-05T08:31:24.394Z,95394.09
2023-05-05T08:33:51.381Z,95399.81
2023-05-05T08:36:18.346Z,95413.03
2023-05-05T08:38:45.307Z,95398.53
2023-05-05T08:41:14.480Z,95400.94
2023-05-05T08:43:44.054Z,95406.97
2023-05-05T08:46:12.669Z,95395.34
2023-05-05T08:48:42.077Z,95396.53
2023-05-05T08:51:19.900Z,95394.41
2023-05-05T08:54:08.375Z,95393.19
2023-05-05T08:56:41.761Z,95386.34
2023-05-05T08:59:11.368Z,95399.41
2023-05-05T09:01:38.527Z,95387.75
2023-05-05T09:04:07.895Z,95401.78
2023-05-05T09:06:36.080Z,95409.03
2023-05-05T09:09:03.291Z,95401.81
2023-05-05T09:11:30.270Z,95390.53
2023-05-05T09:13:57.222Z,95391.38
2023-05-05T09:16:24.398Z,95382.38
2023-05-05T09:19:00.602Z,95393.88
2023-05-05T09:21:28.006Z,95388.84
2023-05-05T09:24:24.206Z,95389.50
2023-05-05T09:26:51.226Z,95377.53
2023-05-05T09:29:22.967Z,95382.94
2023-05-05T09:32:09.075Z,95383.75
2023-05-05T09:34:36.453Z,95377.56
2023-05-05T09:37:04.041Z,95385.03
2023-05-05T09:39:31.240Z,95378.56
2023-05-05T09:41:58.738Z,95382.88
2023-05-05T09:44:36.827Z,95375.78
2023-05-05T09:47:09.512Z,95382.59
2023-05-05T09:49:41.918Z,95373.09
2023-05-05T09:52:16.061Z,95372.53
2023-05-05T09:54:44.236Z,95374.19
2023-05-05T09:57:29.651Z,95369.31
2023-05-05T10:00:01.175Z,95358.31
2023-05-05T10:02:36.281Z,95362.25
2023-05-05T10:05:09.036Z,95358.47
2023-05-05T10:07:37.536Z,95359.06
2023-05-05T10:10:07.033Z,95359.94
2023-05-05T10:12:37.223Z,95342.44
2023-05-05T10:15:06.204Z,95359.03
2023-05-05T10:17:36.045Z,95346.06
2023-05-05T10:20:04.234Z,95347.81
2023-05-05T10:22:35.577Z,95349.53
2023-05-05T10:25:14.390Z,95346.38
2023-05-05T10:27:46.700Z,95347.69
2023-05-05T10:30:20.865Z,95337.09
2023-05-05T10:33:00.595Z,95346.78
2023-05-05T10:35:38.643Z,95340.97
2023-05-05T10:38:12.653Z,95343.56
2023-05-05T10:40:45.995Z,95334.91
2023-05-05T10:43:16.006Z,95320.78
2023-05-05T10:45:43.934Z,95337.50
2023-05-05T10:48:19.112Z,95332.47
2023-05-05T10:50:52.098Z,95337.53
2023-05-05T10:53:28.065Z,95346.78
2023-05-05T10:56:04.488Z,95347.03
2023-05-05T10:58:46.849Z,95337.84
2023-05-05T11:01:35.712Z,95332.94
2023-05-05T11:04:22.772Z,95334.91
2023-05-05T11:07:09.778Z,95340.78
2023-05-05T11:09:55.892Z,95334.53
2023-05-05T11:12:22.897Z,95330.69
2023-05-05T11:15:28.383Z,95339.22
2023-05-05T11:17:58.957Z,95340.66
2023-05-05T11:20:40.726Z,95326.81
2023-05-05T11:23:07.795Z,95333.69
2023-05-05T11:25:34.774Z,95325.44
2023-05-05T11:28:30.164Z,95326.03
2023-05-05T11:30:58.117Z,95322.00
2023-05-05T11:33:38.018Z,95319.16
2023-05-05T11:36:07.275Z,95314.34
2023-05-05T11:38:58.972Z,95317.16
2023-05-05T11:41:34.542Z,95319.38
2023-05-05T11:44:11.918Z,95300.59
2023-05-05T11:47:05.452Z,95301.38
2023-05-05T11:49:36.997Z,95309.03
2023-05-05T11:52:06.867Z,95292.16
2023-05-05T11:54:38.850Z,95304.47
2023-05-05T11:57:07.529Z,95296.81
2023-05-05T11:59:36.633Z,95291.13
2023-05-05T12:02:04.760Z,95288.50
2023-05-05T12:04:32.408Z,95292.97
2023-05-05T12:07:00.153Z,95293.28
2023-05-05T12:09:27.629Z,95292.81
2023-05-05T12:11:56.574Z,95283.84
2023-05-05T12:14:24.145Z,95282.91
2023-05-05T12:17:04.499Z,95276.59
2023-05-05T12:19:33.771Z,95280.38
2023-05-05T12:22:05.343Z,95275.34
2023-05-05T12:24:32.412Z,95270.03
2023-05-05T12:27:09.678Z,95265.34
2023-05-05T12:29:36.872Z,95267.41
2023-05-05T12:32:04.568Z,95260.34
2023-05-05T12:34:32.254Z,95275.16
2023-05-05T12:37:01.211Z,95263.06
2023-05-05T12:39:37.326Z,95261.81
2023-05-05T12:42:05.336Z,95265.38
2023-05-05T12:44:36.481Z,95256.66
2023-05-05T12:47:04.260Z,95266.69
2023-05-05T12:49:34.516Z,95253.06
2023-05-05T12:52:01.601Z,95258.22
2023-05-05T12:54:31.283Z,95246.53
2023-05-05T12:56:58.992Z,95246.75
2023-05-05T12:59:25.842Z,95255.47
2023-05-05T13:01:55.122Z,95241.16
2023-05-05T13:04:24.330Z,95246.97
2023-05-05T13:07:07.882Z,95234.59
2023-05-05T13:09:35.000Z,95239.84
2023-05-05T13:12:03.567Z,95245.31
2023-05-05T13:14:32.140Z,95242.94
2023-05-05T13:16:59.163Z,95228.06
2023-05-05T13:19:26.408Z,95236.13
2023-05-05T13:21:54.396Z,95233.31
2023-05-05T13:24:31.067Z,95227.66
2023-05-05T13:27:03.235Z,95224.03
2023-05-05T13:29:31.734Z,95232.28
2023-05-05T13:31:59.093Z,95230.44
2023-05-05T13:34:26.055Z,95221.97
2023-05-05T13:36:53.080Z,95224.34
2023-05-05T13:39:20.240Z,95217.13
2023-05-05T13:41:47.235Z,95224.94
2023-05-05T13:44:14.653Z,95223.53
2023-05-05T13:46:43.029Z,95220.72
2023-05-05T13:49:10.095Z,95222.59
2023-05-05T13:51:38.504Z,95221.41
2023-05-05T13:54:06.749Z,95226.44
2023-05-05T13:56:34.923Z,95235.31
2023-05-05T13:59:02.668Z,95231.69
2023-05-05T14:01:30.011Z,95226.06
2023-05-05T14:03:57.902Z,95230.06
2023-05-05T14:06:25.209Z,95228.47
2023-05-05T14:08:52.330Z,95223.19
2023-05-05T14:11:20.896Z,95231.28
2023-05-05T14:13:48.393Z,95243.38
2023-05-05T14:16:15.657Z,95226.66
2023-05-05T14:18:42.903Z,95222.81
2023-05-05T14:21:10.184Z,95222.03
2023-05-05T14:23:37.329Z,95212.13
2023-05-05T14:26:04.409Z,95226.00
2023-05-05T14:28:31.386Z,95222.72
2023-05-05T14:30:58.352Z,95217.97
2023-05-05T14:33:25.350Z,95216.34
2023-05-05T14:35:52.493Z,95208.88
2023-05-05T14:38:19.508Z,95208.25
2023-05-05T14:40:46.624Z,95207.25
2023-05-05T14:43:13.586Z,95207.81
2023-05-05T14:45:40.536Z,95218.59
2023-05-05T14:48:07.663Z,95213.94
2023-05-05T14:50:35.238Z,95211.94
2023-05-05T14:53:02.274Z,95218.75
2023-05-05T14:55:29.484Z,95214.06
2023-05-05T14:57:56.564Z,95196.91
2023-05-05T15:00:23.579Z,95213.09
2023-05-05T15:02:50.598Z,95211.69
2023-05-05T15:05:17.632Z,95208.66
2023-05-05T15:07:44.743Z,95203.81
2023-05-05T15:10:12.180Z,95213.53
2023-05-05T15:12:39.451Z,95215.16
2023-05-05T15:15:08.969Z,95211.09
2023-05-05T15:17:37.738Z,95214.16
2023-05-05T15:20:08.402Z,95222.59
2023-05-05T15:22:35.642Z,95223.19
2023-05-05T15:25:02.768Z,95216.16
2023-05-05T15:27:30.863Z,95218.59
2023-05-05T15:29:57.920Z,95216.69
2023-05-05T15:32:24.957Z,95203.63
2023-05-05T15:34:52.045Z,95205.56
2023-05-05T15:37:19.012Z,95196.75
2023-05-05T15:39:45.961Z,95198.53
2023-05-05T15:42:12.980Z,95197.66
2023-05-05T15:44:39.891Z,95197.53
2023-05-05T15:47:07.773Z,95199.16
2023-05-05T15:49:34.939Z,95192.19
2023-05-05T15:52:01.980Z,95180.41
2023-05-05T15:54:28.986Z,95182.56
2023-05-05T15:56:55.930Z,95192.47
2023-05-05T15:59:23.159Z,95196.06
2023-05-05T16:01:50.030Z,95191.44
2023-05-05T16:04:17.046Z,95189.06
2023-05-05T16:06:44.124Z,95187.94
2023-05-05T16:09:11.152Z,95194.72
2023-05-05T16:11:38.239Z,95200.38
2023-05-05T16:14:05.255Z,95197.97
2023-05-05T16:16:32.259Z,95185.66
2023-05-05T16:18:59.289Z,95192.75
2023-05-05T16:21:26.324Z,95197.13
2023-05-05T16:23:53.445Z,95192.81
2023-05-05T16:26:20.616Z,95187.72
2023-05-05T16:28:47.788Z,95194.50
2023-05-05T16:31:14.971Z,95187.63
2023-05-05T16:33:44.107Z,95185.00
2023-05-05T16:36:12.648Z,95187.22
2023-05-05T16:38:40.731Z,95190.63
2023-05-05T16:41:08.437Z,95202.28
2023-05-05T16:43:37.407Z,95199.25
2023-05-05T16:46:04.438Z,95196.22
2023-05-05T16:48:31.430Z,95192.75
2023-05-05T16:50:58.793Z,95193.94
2023-05-05T16:53:26.260Z,95188.28
2023-05-05T16:55:53.773Z,95199.66
2023-05-05T16:58:22.889Z,95199.59
2023-05-05T17:00:51.097Z,95180.03
2023-05-05T17:03:22.814Z,95200.22
2023-05-05T17:05:50.504Z,95194.63
2023-05-05T17:08:17.651Z,95199.00
2023-05-05T17:10:45.620Z,95198.94
